sensor_id;sensor_type;location;lat;lon;timestamp;pressure;altitude;pressure_sealevel;temperature;humidity
30856;BME280;17570;0.000;0.000;2024-01-10T00:09:15;98390.67;;;13.29;23.19
30856;BME280;17570;0.000;0.000;2024-01-10T00:14:59;98394.53;;;12.84;23.36
30856;BME280;17570;0.000;0.000;2024-01-10T00:20:49;98377.33;;;17.34;20.97
30856;BME280;17570;0.000;0.000;2024-01-10T00:26:38;98380.10;;;24.35;15.21
30856;BME280;17570;0.000;0.000;2024-01-10T00:32:22;98382.20;;;20.29;17.15
30856;BME280;17570;0.000;0.000;2024-01-10T00:38:11;98394.77;;;17.66;18.51
30856;BME280;17570;0.000;0.000;2024-01-10T00:44:01;98392.48;;;16.02;19.52
30856;BME280;17570;0.000;0.000;2024-01-10T00:49:50;98390.25;;;14.71;20.68
30856;BME280;17570;0.000;0.000;2024-01-10T00:55:39;98395.13;;;13.65;21.76
30856;BME280;17570;0.000;0.000;2024-01-10T01:01:29;98405.14;;;12.81;22.52
30856;BME280;17570;0.000;0.000;2024-01-10T01:07:13;98394.62;;;13.22;23.34
30856;BME280;17570;0.000;0.000;2024-01-10T01:12:57;98373.45;;;22.04;16.63
30856;BME280;17570;0.000;0.000;2024-01-10T01:18:41;98360.85;;;24.87;14.02
30856;BME280;17570;0.000;0.000;2024-01-10T01:24:32;98362.34;;;19.80;16.75
30856;BME280;17570;0.000;0.000;2024-01-10T01:30:22;98382.41;;;17.05;18.39
30856;BME280;17570;0.000;0.000;2024-01-10T01:38:47;98374.31;;;15.09;20.07
30856;BME280;17570;0.000;0.000;2024-01-10T01:44:36;98366.72;;;13.86;21.05
30856;BME280;17570;0.000;0.000;2024-01-10T01:50:20;98359.41;;;12.89;21.85
30856;BME280;17570;0.000;0.000;2024-01-10T01:56:09;98351.20;;;12.02;22.92
30856;BME280;17570;0.000;0.000;2024-01-10T02:02:00;98328.38;;;20.94;17.11
30856;BME280;17570;0.000;0.000;2024-01-10T02:07:50;98311.38;;;25.98;13.01
30856;BME280;17570;0.000;0.000;2024-01-10T02:13:39;98316.45;;;20.63;15.55
30856;BME280;17570;0.000;0.000;2024-01-10T02:19:29;98316.97;;;17.34;17.36
30856;BME280;17570;0.000;0.000;2024-01-10T02:25:19;98297.07;;;15.50;18.85
30856;BME280;17570;0.000;0.000;2024-01-10T02:31:09;98299.73;;;14.22;20.05
30856;BME280;17570;0.000;0.000;2024-01-10T02:36:53;98301.98;;;13.03;21.23
30856;BME280;17570;0.000;0.000;2024-01-10T02:48:58;98294.16;;;18.15;18.57
30856;BME280;17570;0.000;0.000;2024-01-10T02:54:42;98295.42;;;24.72;13.71
30856;BME280;17570;0.000;0.000;2024-01-10T03:00:31;98307.59;;;20.37;15.33
30856;BME280;17570;0.000;0.000;2024-01-10T03:16:17;98316.60;;;14.18;19.67
30856;BME280;17570;0.000;0.000;2024-01-10T03:22:07;98325.76;;;13.12;20.25
30856;BME280;17570;0.000;0.000;2024-01-10T03:27:56;98329.52;;;12.15;21.05
30856;BME280;17570;0.000;0.000;2024-01-10T03:33:45;98309.64;;;16.01;19.25
30856;BME280;17570;0.000;0.000;2024-01-10T03:39:35;98302.91;;;23.35;14.40
30856;BME280;17570;0.000;0.000;2024-01-10T03:51:38;98296.38;;;18.20;16.13
30856;BME280;17570;0.000;0.000;2024-01-10T03:57:23;98304.49;;;16.11;17.19
30856;BME280;17570;0.000;0.000;2024-01-10T04:03:12;98310.53;;;14.41;18.24
30856;BME280;17570;0.000;0.000;2024-01-10T04:09:02;98313.44;;;13.14;19.28
30856;BME280;17570;0.000;0.000;2024-01-10T04:15:09;98321.61;;;11.75;20.54
30856;BME280;17570;0.000;0.000;2024-01-10T04:20:59;98317.14;;;15.94;18.53
30856;BME280;17570;0.000;0.000;2024-01-10T04:26:48;98296.03;;;23.74;13.31
30856;BME280;17570;0.000;0.000;2024-01-10T04:32:38;98288.77;;;27.23;10.75
30856;BME280;17570;0.000;0.000;2024-01-10T04:38:21;98302.21;;;21.00;13.68
30856;BME280;17570;0.000;0.000;2024-01-10T04:44:12;98319.39;;;17.77;15.44
30856;BME280;17570;0.000;0.000;2024-01-10T04:56:13;98337.06;;;13.87;18.15
30856;BME280;17570;0.000;0.000;2024-01-10T05:01:57;98343.75;;;12.76;18.94
30856;BME280;17570;0.000;0.000;2024-01-10T05:07:47;98357.78;;;12.07;22.73
30856;BME280;17570;0.000;0.000;2024-01-10T05:13:36;98342.53;;;19.76;16.94
30856;BME280;17570;0.000;0.000;2024-01-10T05:19:25;98336.97;;;25.55;12.66
30856;BME280;17570;0.000;0.000;2024-01-10T05:25:15;98344.91;;;20.24;14.39
30856;BME280;17570;0.000;0.000;2024-01-10T05:31:06;98353.94;;;17.00;16.09
30856;BME280;17570;0.000;0.000;2024-01-10T05:36:55;98352.79;;;15.05;17.32
30856;BME280;17570;0.000;0.000;2024-01-10T05:42:45;98344.64;;;13.53;18.93
30856;BME280;17570;0.000;0.000;2024-01-10T05:48:34;98356.73;;;12.24;20.03
30856;BME280;17570;0.000;0.000;2024-01-10T05:54:18;98356.28;;;12.84;20.40
30856;BME280;17570;0.000;0.000;2024-01-10T06:00:02;98343.70;;;22.02;14.13
30856;BME280;17570;0.000;0.000;2024-01-10T06:06:23;98345.95;;;22.31;13.28
30856;BME280;17570;0.000;0.000;2024-01-10T06:12:13;98356.36;;;17.95;15.15
30856;BME280;17570;0.000;0.000;2024-01-10T06:18:02;98362.98;;;15.66;16.73
30856;BME280;17570;0.000;0.000;2024-01-10T06:23:52;98381.10;;;14.28;20.25
30856;BME280;17570;0.000;0.000;2024-01-10T06:29:42;98390.30;;;13.08;20.99
30856;BME280;17570;0.000;0.000;2024-01-10T06:38:48;98390.45;;;13.58;20.88
30856;BME280;17570;0.000;0.000;2024-01-10T06:48:18;98370.71;;;25.54;12.30
30856;BME280;17570;0.000;0.000;2024-01-10T06:54:07;98381.89;;;25.50;11.78
30856;BME280;17570;0.000;0.000;2024-01-10T06:59:51;98393.22;;;19.60;15.06
30856;BME280;17570;0.000;0.000;2024-01-10T07:05:41;98400.79;;;17.26;16.66
30856;BME280;17570;0.000;0.000;2024-01-10T07:11:27;98396.56;;;15.72;17.95
30856;BME280;17570;0.000;0.000;2024-01-10T07:23:25;98404.41;;;13.57;20.09
30856;BME280;17570;0.000;0.000;2024-01-10T07:29:15;98401.83;;;12.91;21.01
30856;BME280;17570;0.000;0.000;2024-01-10T07:35:04;98393.80;;;17.36;19.46
30856;BME280;17570;0.000;0.000;2024-01-10T07:40:55;98380.20;;;24.50;13.88
30856;BME280;17570;0.000;0.000;2024-01-10T07:46:46;98381.94;;;21.04;15.48
30856;BME280;17570;0.000;0.000;2024-01-10T07:52:36;98379.09;;;18.16;17.46
30856;BME280;17570;0.000;0.000;2024-01-10T07:58:19;98371.17;;;16.50;18.66
30856;BME280;17570;0.000;0.000;2024-01-10T08:13:36;98381.64;;;14.21;22.47
30856;BME280;17570;0.000;0.000;2024-01-10T08:19:20;98374.05;;;13.68;22.25
30856;BME280;17570;0.000;0.000;2024-01-10T08:25:10;98379.06;;;13.33;22.91
30856;BME280;17570;0.000;0.000;2024-01-10T08:31:00;98369.73;;;22.15;17.41
30856;BME280;17570;0.000;0.000;2024-01-10T08:36:51;98366.33;;;21.97;16.01
30856;BME280;17570;0.000;0.000;2024-01-10T08:42:41;98376.40;;;19.04;18.00
30856;BME280;17570;0.000;0.000;2024-01-10T08:48:24;98372.08;;;17.34;19.47
30856;BME280;17570;0.000;0.000;2024-01-10T08:54:14;98377.10;;;16.20;20.25
30856;BME280;17570;0.000;0.000;2024-01-10T09:00:05;98368.56;;;15.39;20.88
30856;BME280;17570;0.000;0.000;2024-01-10T09:05:55;98365.06;;;14.70;22.04
30856;BME280;17570;0.000;0.000;2024-01-10T09:11:39;98364.19;;;14.21;22.65
30856;BME280;17570;0.000;0.000;2024-01-10T09:17:29;98365.38;;;13.81;23.28
30856;BME280;17570;0.000;0.000;2024-01-10T09:23:18;98349.20;;;18.17;21.58
30856;BME280;17570;0.000;0.000;2024-01-10T09:29:07;98332.27;;;22.69;20.87
30856;BME280;17570;0.000;0.000;2024-01-10T09:34:57;98329.36;;;19.76;20.63
30856;BME280;17570;0.000;0.000;2024-01-10T09:40:46;98326.53;;;18.16;20.78
30856;BME280;17570;0.000;0.000;2024-01-10T09:46:30;98323.39;;;17.20;21.29
30856;BME280;17570;0.000;0.000;2024-01-10T09:52:24;98320.75;;;16.57;21.92
30856;BME280;17570;0.000;0.000;2024-01-10T09:58:06;98313.18;;;16.11;22.59
30856;BME280;17570;0.000;0.000;2024-01-10T10:03:56;98311.57;;;15.88;22.95
30856;BME280;17570;0.000;0.000;2024-01-10T10:09:41;98317.64;;;15.54;22.92
30856;BME280;17570;0.000;0.000;2024-01-10T10:21:46;98309.55;;;15.24;21.82
30856;BME280;17570;0.000;0.000;2024-01-10T10:27:36;98301.64;;;18.39;21.29
30856;BME280;17570;0.000;0.000;2024-01-10T10:33:26;98287.28;;;23.65;17.40
30856;BME280;17570;0.000;0.000;2024-01-10T10:39:16;98291.23;;;21.73;16.18
30856;BME280;17570;0.000;0.000;2024-01-10T10:45:06;98283.80;;;20.64;16.71
30856;BME280;17570;0.000;0.000;2024-01-10T10:54:35;98277.86;;;19.64;18.17
30856;BME280;17570;0.000;0.000;2024-01-10T11:00:26;98268.45;;;19.51;18.29
30856;BME280;17570;0.000;0.000;2024-01-10T11:06:17;98259.56;;;19.52;17.38
30856;BME280;17570;0.000;0.000;2024-01-10T11:24:15;98251.52;;;19.81;18.64
30856;BME280;17570;0.000;0.000;2024-01-10T11:29:59;98235.14;;;19.87;17.75
30856;BME280;17570;0.000;0.000;2024-01-10T11:42:40;98235.90;;;20.16;17.31
30856;BME280;17570;0.000;0.000;2024-01-10T11:48:27;98226.81;;;20.72;16.92
30856;BME280;17570;0.000;0.000;2024-01-10T11:57:33;98207.88;;;21.36;17.60
30856;BME280;17570;0.000;0.000;2024-01-10T12:03:22;98202.00;;;21.67;16.44
30856;BME280;17570;0.000;0.000;2024-01-10T12:09:13;98198.98;;;21.54;15.57
30856;BME280;17570;0.000;0.000;2024-01-10T12:15:02;98197.63;;;21.07;15.64
30856;BME280;17570;0.000;0.000;2024-01-10T12:20:52;98196.02;;;20.54;16.56
30856;BME280;17570;0.000;0.000;2024-01-10T12:26:45;98187.02;;;20.03;16.69
30856;BME280;17570;0.000;0.000;2024-01-10T12:32:29;98192.30;;;19.40;17.65
30856;BME280;17570;0.000;0.000;2024-01-10T12:38:20;98190.34;;;18.77;18.28
30856;BME280;17570;0.000;0.000;2024-01-10T12:44:09;98187.11;;;18.07;19.24
30856;BME280;17570;0.000;0.000;2024-01-10T12:49:59;98175.97;;;17.46;20.12
30856;BME280;17570;0.000;0.000;2024-01-10T12:59:10;98174.30;;;16.43;21.83
30856;BME280;17570;0.000;0.000;2024-01-10T13:04:53;98178.31;;;16.05;22.44
30856;BME280;17570;0.000;0.000;2024-01-10T13:10:43;98187.84;;;15.74;23.19
30856;BME280;17570;0.000;0.000;2024-01-10T13:16:33;98177.56;;;15.39;23.24
30856;BME280;17570;0.000;0.000;2024-01-10T13:22:22;98176.84;;;20.08;21.91
30856;BME280;17570;0.000;0.000;2024-01-10T13:28:11;98166.14;;;22.79;19.65
30856;BME280;17570;0.000;0.000;2024-01-10T13:34:01;98176.25;;;20.15;20.46
30856;BME280;17570;0.000;0.000;2024-01-10T13:39:52;98171.70;;;18.51;21.28
30856;BME280;17570;0.000;0.000;2024-01-10T13:45:42;98177.64;;;17.56;21.63
30856;BME280;17570;0.000;0.000;2024-01-10T13:51:31;98182.96;;;16.86;21.96
30856;BME280;17570;0.000;0.000;2024-01-10T14:03:42;98180.28;;;15.38;24.10
30856;BME280;17570;0.000;0.000;2024-01-10T14:09:26;98185.08;;;15.10;24.96
30856;BME280;17570;0.000;0.000;2024-01-10T14:15:16;98195.89;;;14.72;25.00
30856;BME280;17570;0.000;0.000;2024-01-10T14:21:05;98193.89;;;14.29;25.59
30856;BME280;17570;0.000;0.000;2024-01-10T14:26:55;98182.91;;;19.00;22.81
30856;BME280;17570;0.000;0.000;2024-01-10T14:32:45;98185.08;;;22.19;18.62
30856;BME280;17570;0.000;0.000;2024-01-10T14:38:35;98195.49;;;19.34;20.44
30856;BME280;17570;0.000;0.000;2024-01-10T14:44:26;98193.45;;;17.76;21.60
30856;BME280;17570;0.000;0.000;2024-01-10T14:53:27;98212.52;;;15.93;23.90
30856;BME280;17570;0.000;0.000;2024-01-10T14:59:26;98207.17;;;15.28;24.73
30856;BME280;17570;0.000;0.000;2024-01-10T15:05:15;98198.50;;;14.61;25.76
30856;BME280;17570;0.000;0.000;2024-01-10T15:11:06;98199.04;;;14.07;26.38
30856;BME280;17570;0.000;0.000;2024-01-10T15:16:57;98195.17;;;13.88;28.84
30856;BME280;17570;0.000;0.000;2024-01-10T15:22:48;98185.00;;;19.52;24.58
30856;BME280;17570;0.000;0.000;2024-01-10T15:28:37;98174.59;;;23.30;19.27
30856;BME280;17570;0.000;0.000;2024-01-10T15:34:27;98177.16;;;19.70;21.24
30856;BME280;17570;0.000;0.000;2024-01-10T15:40:16;98189.95;;;17.56;22.73
30856;BME280;17570;0.000;0.000;2024-01-10T15:55:46;98191.11;;;14.54;25.04
30856;BME280;17570;0.000;0.000;2024-01-10T16:01:35;98201.28;;;14.00;25.47
30856;BME280;17570;0.000;0.000;2024-01-10T16:07:24;98207.05;;;13.44;26.26
30856;BME280;17570;0.000;0.000;2024-01-10T16:13:14;98203.67;;;15.73;25.44
30856;BME280;17570;0.000;0.000;2024-01-10T16:18:58;98195.58;;;23.79;18.00
30856;BME280;17570;0.000;0.000;2024-01-10T16:28:09;98210.73;;;19.58;19.85
30856;BME280;17570;0.000;0.000;2024-01-10T16:33:58;98219.89;;;17.44;21.42
30856;BME280;17570;0.000;0.000;2024-01-10T16:39:47;98220.01;;;15.97;22.40
30856;BME280;17570;0.000;0.000;2024-01-10T16:45:37;98212.54;;;15.04;23.54
30856;BME280;17570;0.000;0.000;2024-01-10T16:54:53;98219.28;;;13.68;24.75
30856;BME280;17570;0.000;0.000;2024-01-10T17:00:36;98220.66;;;12.98;25.52
30856;BME280;17570;0.000;0.000;2024-01-10T17:06:26;98209.44;;;16.20;23.41
30856;BME280;17570;0.000;0.000;2024-01-10T17:22:04;98206.56;;;18.53;19.45
30856;BME280;17570;0.000;0.000;2024-01-10T17:27:54;98210.96;;;16.64;21.04
30856;BME280;17570;0.000;0.000;2024-01-10T17:43:26;98230.25;;;13.60;23.67
30856;BME280;17570;0.000;0.000;2024-01-10T17:49:15;98228.59;;;12.84;24.22
30856;BME280;17570;0.000;0.000;2024-01-10T17:55:00;98230.02;;;14.93;23.74
30856;BME280;17570;0.000;0.000;2024-01-10T18:00:38;98210.69;;;23.31;16.63
30856;BME280;17570;0.000;0.000;2024-01-10T18:06:28;98212.11;;;23.02;16.06
30856;BME280;17570;0.000;0.000;2024-01-10T18:12:18;98214.70;;;18.60;18.36
30856;BME280;17570;0.000;0.000;2024-01-10T18:18:07;98211.95;;;16.42;19.92
30856;BME280;17570;0.000;0.000;2024-01-10T18:23:56;98207.78;;;15.10;21.61
30856;BME280;17570;0.000;0.000;2024-01-10T18:29:46;98207.12;;;14.03;22.35
30856;BME280;17570;0.000;0.000;2024-01-10T18:35:36;98208.96;;;13.17;23.42
30856;BME280;17570;0.000;0.000;2024-01-10T18:41:25;98198.06;;;12.48;24.44
30856;BME280;17570;0.000;0.000;2024-01-10T18:47:16;98184.92;;;18.79;20.04
30856;BME280;17570;0.000;0.000;2024-01-10T18:53:05;98183.27;;;25.29;14.31
30856;BME280;17570;0.000;0.000;2024-01-10T18:58:49;98187.80;;;20.57;16.73
30856;BME280;17570;0.000;0.000;2024-01-10T19:10:56;98190.48;;;15.52;20.46
30856;BME280;17570;0.000;0.000;2024-01-10T19:16:45;98187.49;;;14.33;21.08
30856;BME280;17570;0.000;0.000;2024-01-10T19:22:36;98187.13;;;13.43;22.24
30856;BME280;17570;0.000;0.000;2024-01-10T19:28:26;98185.05;;;12.61;23.33
30856;BME280;17570;0.000;0.000;2024-01-10T19:34:15;98174.25;;;15.15;22.44
30856;BME280;17570;0.000;0.000;2024-01-10T19:40:05;98150.89;;;22.97;16.02
30856;BME280;17570;0.000;0.000;2024-01-10T19:45:54;98157.05;;;23.29;15.43
30856;BME280;17570;0.000;0.000;2024-01-10T19:51:43;98169.48;;;19.03;17.63
30856;BME280;17570;0.000;0.000;2024-01-10T19:57:34;98165.25;;;16.78;19.28
30856;BME280;17570;0.000;0.000;2024-01-10T20:03:12;98169.91;;;15.47;20.55
30856;BME280;17570;0.000;0.000;2024-01-10T20:08:58;98158.77;;;14.33;21.44
30856;BME280;17570;0.000;0.000;2024-01-10T20:14:47;98162.92;;;13.41;22.32
30856;BME280;17570;0.000;0.000;2024-01-10T20:20:36;98159.12;;;12.59;23.13
30856;BME280;17570;0.000;0.000;2024-01-10T20:26:26;98145.23;;;17.07;20.79
30856;BME280;17570;0.000;0.000;2024-01-10T20:32:15;98121.84;;;24.35;14.82
30856;BME280;17570;0.000;0.000;2024-01-10T20:38:04;98128.77;;;21.35;15.93
30856;BME280;17570;0.000;0.000;2024-01-10T20:43:54;98132.36;;;17.83;18.01
30856;BME280;17570;0.000;0.000;2024-01-10T20:49:43;98130.45;;;16.03;19.32
30856;BME280;17570;0.000;0.000;2024-01-10T20:55:32;98125.34;;;14.61;20.93
30856;BME280;17570;0.000;0.000;2024-01-10T21:01:22;98121.27;;;13.52;21.90
30856;BME280;17570;0.000;0.000;2024-01-10T21:13:31;98110.23;;;15.41;21.86
30856;BME280;17570;0.000;0.000;2024-01-10T21:19:20;98088.42;;;23.42;15.26
30856;BME280;17570;0.000;0.000;2024-01-10T21:31:53;98099.41;;;18.28;17.63
30856;BME280;17570;0.000;0.000;2024-01-10T21:37:37;98107.62;;;16.36;18.96
30856;BME280;17570;0.000;0.000;2024-01-10T21:43:26;98107.25;;;14.91;19.92
30856;BME280;17570;0.000;0.000;2024-01-10T21:49:16;98113.98;;;13.80;21.12
30856;BME280;17570;0.000;0.000;2024-01-10T22:04:59;98100.72;;;18.51;18.89
30856;BME280;17570;0.000;0.000;2024-01-10T22:10:43;98093.92;;;24.98;13.78
30856;BME280;17570;0.000;0.000;2024-01-10T22:16:27;98092.42;;;21.29;15.24
30856;BME280;17570;0.000;0.000;2024-01-10T22:22:21;98092.55;;;17.88;17.60
30856;BME280;17570;0.000;0.000;2024-01-10T22:38:14;98098.00;;;13.49;20.66
30856;BME280;17570;0.000;0.000;2024-01-10T22:44:03;98094.08;;;12.70;21.36
30856;BME280;17570;0.000;0.000;2024-01-10T22:49:52;98105.03;;;11.86;22.04
30856;BME280;17570;0.000;0.000;2024-01-10T22:55:42;98085.27;;;21.05;15.99
30856;BME280;17570;0.000;0.000;2024-01-10T23:01:31;98084.31;;;25.91;12.37
30856;BME280;17570;0.000;0.000;2024-01-10T23:07:16;98085.08;;;22.06;13.74
30856;BME280;17570;0.000;0.000;2024-01-10T23:16:28;98086.48;;;16.79;17.34
30856;BME280;17570;0.000;0.000;2024-01-10T23:22:17;98087.44;;;15.32;18.40
30856;BME280;17570;0.000;0.000;2024-01-10T23:31:05;98079.95;;;13.46;20.04
30856;BME280;17570;0.000;0.000;2024-01-10T23:36:56;98066.00;;;12.50;21.34
30856;BME280;17570;0.000;0.000;2024-01-10T23:42:40;98070.11;;;14.65;20.75
30856;BME280;17570;0.000;0.000;2024-01-10T23:48:29;98043.61;;;23.32;14.17
30856;BME280;17570;0.000;0.000;2024-01-10T23:54:18;98042.13;;;23.53;13.31
